Time;durP1;ratioP1;P1;durP2;ratioP2;P2;SDS_P1;SDS_P2;PMS_P1;PMS_P2;Temp;Humidity;BMP_temperature;BMP_pressure;BME280_temperature;BME280_humidity;BME280_pressure;Samples;Min_cycle;Max_cycle;Signal;HPM_P1;HPM_P2
2021/05/13 00:00:08;;;;;;;6.87;4.75;;;10.30;99.90;;;;;;6695111;88;20696;-77
2021/05/13 00:10:14;;;;;;;7.10;4.78;;;10.30;99.90;;;;;;6693885;88;20183;-77
2021/05/13 00:20:18;;;;;;;8.57;4.50;;;10.10;99.90;;;;;;6687839;88;20296;-78
2021/05/13 00:30:20;;;;;;;7.53;4.32;;;10.00;99.90;;;;;;6683905;88;20671;-78
2021/05/13 00:40:21;;;;;;;5.43;4.37;;;10.00;99.90;;;;;;6685710;88;20194;-77
2021/05/13 00:50:22;;;;;;;7.30;4.45;;;10.10;99.90;;;;;;6686556;88;20210;-79
2021/05/13 01:00:40;;;;;;;8.15;4.97;;;9.90;99.90;;;;;;6685787;88;20211;-77
2021/05/13 01:10:41;;;;;;;8.15;5.03;;;9.60;99.90;;;;;;6669349;89;20624;-76
2021/05/13 01:20:43;;;;;;;7.25;4.93;;;9.60;99.90;;;;;;6669945;89;20250;-77
2021/05/13 01:30:45;;;;;;;9.43;5.28;;;9.50;99.90;;;;;;6668385;89;20286;-77
2021/05/13 01:40:54;;;;;;;8.93;4.78;;;9.20;99.90;;;;;;6667560;89;20692;-78
2021/05/13 01:50:55;;;;;;;9.10;4.78;;;9.10;99.90;;;;;;6667247;89;20202;-78
2021/05/13 02:00:56;;;;;;;9.15;5.95;;;9.20;99.90;;;;;;6666860;89;20693;-78
2021/05/13 02:10:57;;;;;;;9.23;5.47;;;8.80;99.90;;;;;;6666875;89;20234;-78
2021/05/13 02:20:58;;;;;;;8.15;5.07;;;8.90;99.90;;;;;;6667548;89;20195;-80
2021/05/13 02:30:59;;;;;;;9.23;5.12;;;8.80;99.90;;;;;;6670681;89;20600;-77
2021/05/13 02:41:00;;;;;;;9.50;5.93;;;8.90;99.90;;;;;;6673161;89;20197;-77
2021/05/13 02:51:01;;;;;;;7.53;5.22;;;9.10;99.90;;;;;;6679950;89;20167;-80
2021/05/13 03:11:25;;;;;;;6.37;4.90;;;8.70;99.90;;;;;;6689533;89;20179;-76
2021/05/13 03:21:34;;;;;;;11.18;5.05;;;8.70;99.90;;;;;;6692872;88;20244;-77
2021/05/13 03:31:35;;;;;;;8.15;4.60;;;8.40;99.90;;;;;;6694369;88;20263;-79
2021/05/13 03:41:36;;;;;;;8.43;4.80;;;8.30;99.90;;;;;;6693879;88;20212;-77
2021/05/13 03:51:36;;;;;;;7.12;4.50;;;8.20;99.90;;;;;;6693596;88;20204;-80
2021/05/13 04:11:41;;;;;;;7.43;4.75;;;8.20;99.90;;;;;;6693444;88;20887;-76
2021/05/13 04:21:42;;;;;;;6.95;4.65;;;8.00;99.90;;;;;;6693543;88;20207;-77
2021/05/13 04:31:42;;;;;;;7.85;4.70;;;8.10;99.90;;;;;;6690788;88;20252;-76
2021/05/13 04:41:43;;;;;;;8.10;5.40;;;7.90;99.90;;;;;;6688897;88;20198;-77
2021/05/13 04:51:46;;;;;;;8.60;5.60;;;8.00;99.90;;;;;;6687334;88;20195;-77
2021/05/13 05:01:46;;;;;;;10.38;6.75;;;8.10;99.90;;;;;;6691585;88;20529;-78
2021/05/13 05:11:47;;;;;;;8.90;6.00;;;8.40;99.90;;;;;;6689186;88;20203;-78
2021/05/13 05:21:47;;;;;;;14.00;7.57;;;8.60;99.90;;;;;;6689409;88;20649;-80
2021/05/13 05:31:48;;;;;;;16.55;8.57;;;8.80;99.90;;;;;;6691466;88;20212;-77
2021/05/13 05:41:48;;;;;;;15.80;9.47;;;9.20;99.90;;;;;;6687106;88;20205;-76
2021/05/13 05:51:49;;;;;;;13.82;9.20;;;9.50;99.90;;;;;;6686355;88;21167;-76
2021/05/13 06:01:49;;;;;;;14.43;9.40;;;10.00;99.90;;;;;;6685490;88;20190;-75
2021/05/13 06:11:50;;;;;;;14.07;9.18;;;10.70;99.90;;;;;;6684634;88;20236;-77
2021/05/13 06:21:50;;;;;;;12.70;7.80;;;11.50;99.90;;;;;;6686048;88;20231;-76
2021/05/13 06:31:51;;;;;;;12.35;7.53;;;11.80;99.90;;;;;;6684876;88;20179;-80
2021/05/13 06:41:52;;;;;;;12.25;7.50;;;12.60;99.90;;;;;;6684387;88;20794;-76
2021/05/13 06:51:52;;;;;;;11.18;7.10;;;13.20;99.90;;;;;;6685002;88;20182;-77
2021/05/13 07:01:56;;;;;;;9.80;6.57;;;13.90;99.90;;;;;;6686089;88;20305;-77
2021/05/13 07:11:56;;;;;;;9.32;5.85;;;15.00;99.90;;;;;;6687862;88;20190;-78
2021/05/13 07:21:57;;;;;;;9.32;6.37;;;15.80;99.90;;;;;;6691199;88;20195;-79
2021/05/13 07:31:57;;;;;;;11.23;5.87;;;15.70;99.90;;;;;;6691981;88;20194;-78
2021/05/13 07:41:58;;;;;;;8.63;5.45;;;16.40;99.90;;;;;;6688209;88;20630;-76
2021/05/13 07:51:58;;;;;;;10.40;5.60;;;17.70;99.90;;;;;;6682741;88;20195;-75
2021/05/13 08:01:59;;;;;;;8.57;5.12;;;18.70;99.90;;;;;;6681685;88;20514;-77
2021/05/13 08:11:59;;;;;;;8.43;4.80;;;19.00;99.90;;;;;;6675971;88;20211;-76
2021/05/13 08:22:00;;;;;;;4.37;3.28;;;19.60;99.90;;;;;;6678637;88;20624;-76
2021/05/13 08:32:00;;;;;;;16.45;4.62;;;18.60;99.90;;;;;;6688998;88;20662;-76
2021/05/13 08:42:03;;;;;;;4.28;2.30;;;20.20;99.90;;;;;;6681018;88;20235;-75
2021/05/13 08:52:11;;;;;;;7.78;3.12;;;21.40;97.10;;;;;;6678997;88;20696;-77
2021/05/13 09:02:12;;;;;;;4.75;2.30;;;21.40;94.80;;;;;;6680072;88;20696;-75
2021/05/13 09:12:12;;;;;;;4.85;2.20;;;22.20;92.50;;;;;;6682480;88;20211;-76
2021/05/13 09:22:21;;;;;;;6.17;1.70;;;22.20;88.00;;;;;;6681922;88;20400;-76
2021/05/13 09:32:21;;;;;;;4.10;1.40;;;23.90;75.60;;;;;;6681285;88;21128;-77
2021/05/13 09:42:22;;;;;;;3.78;1.10;;;24.60;70.30;;;;;;6681656;88;20199;-77
2021/05/13 09:52:47;;;;;;;5.12;0.95;;;25.70;62.20;;;;;;6681682;88;20675;-76
2021/05/13 10:02:47;;;;;;;2.17;0.93;;;25.90;57.10;;;;;;6669920;88;20159;-76
2021/05/13 10:12:50;;;;;;;2.72;1.05;;;26.30;56.60;;;;;;6681353;88;20202;-76
2021/05/13 10:22:51;;;;;;;3.90;1.40;;;25.80;54.50;;;;;;6686201;88;20210;-78
2021/05/13 10:33:18;;;;;;;3.37;1.20;;;24.50;58.60;;;;;;6680443;88;20718;-78
2021/05/13 10:43:26;;;;;;;1.73;0.80;;;22.70;60.00;;;;;;6681671;88;20706;-78
2021/05/13 10:53:48;;;;;;;2.45;0.90;;;22.30;60.60;;;;;;6682032;88;20265;-76
2021/05/13 11:04:18;;;;;;;4.78;1.00;;;21.70;61.70;;;;;;6681581;88;20346;-76
2021/05/13 11:14:22;;;;;;;1.95;0.80;;;22.20;60.60;;;;;;6681250;88;20212;-78
2021/05/13 11:24:29;;;;;;;2.92;1.00;;;22.60;60.30;;;;;;6681286;88;20646;-78
2021/05/13 11:34:32;;;;;;;3.05;1.00;;;22.60;57.90;;;;;;6681581;88;20204;-77
2021/05/13 11:44:33;;;;;;;4.93;0.90;;;22.50;59.50;;;;;;6682223;88;20194;-77
2021/05/13 11:54:34;;;;;;;2.17;0.75;;;22.50;59.50;;;;;;6684402;88;20787;-77
2021/05/13 12:04:34;;;;;;;1.92;0.80;;;23.20;59.60;;;;;;6687673;88;20193;-79
2021/05/13 12:14:35;;;;;;;2.97;0.80;;;23.50;58.10;;;;;;6687565;88;20219;-79
2021/05/13 12:24:41;;;;;;;2.75;0.77;;;24.70;56.20;;;;;;6693655;88;20218;-79
2021/05/13 12:34:42;;;;;;;4.18;0.88;;;23.70;54.40;;;;;;6692715;88;20175;-78
2021/05/13 12:44:43;;;;;;;2.60;0.95;;;23.20;55.20;;;;;;6695785;88;20647;-77
2021/05/13 12:54:45;;;;;;;1.90;0.60;;;22.30;57.00;;;;;;6683117;88;20201;-76
2021/05/13 13:04:47;;;;;;;1.98;0.90;;;21.70;56.70;;;;;;6682391;88;20589;-78
2021/05/13 13:14:49;;;;;;;5.43;3.20;;;21.60;57.30;;;;;;6682511;88;20197;-78
2021/05/13 13:25:08;;;;;;;3.40;1.50;;;21.90;57.70;;;;;;6679466;88;20186;-79
2021/05/13 13:35:11;;;;;;;36.20;20.62;;;21.70;56.70;;;;;;6678201;88;20669;-77
2021/05/13 13:45:12;;;;;;;4.53;1.37;;;21.80;56.10;;;;;;6680002;88;20716;-79
2021/05/13 13:55:13;;;;;;;2.70;0.80;;;22.20;54.90;;;;;;6685260;88;20225;-78
2021/05/13 14:05:14;;;;;;;2.17;0.80;;;22.20;54.70;;;;;;6685692;88;20247;-78
2021/05/13 14:15:15;;;;;;;3.03;0.77;;;22.40;54.10;;;;;;6687064;88;20323;-78
2021/05/13 14:25:15;;;;;;;3.47;0.80;;;23.00;53.70;;;;;;6689522;88;20238;-78
2021/05/13 14:35:21;;;;;;;2.47;0.70;;;22.80;54.10;;;;;;6689965;88;20315;-79
2021/05/13 14:45:21;;;;;;;3.17;0.80;;;22.50;55.30;;;;;;6688883;88;20203;-79
2021/05/13 14:55:22;;;;;;;2.92;1.10;;;22.40;57.90;;;;;;6690617;88;20206;-79
2021/05/13 15:05:23;;;;;;;2.83;0.90;;;21.20;63.60;;;;;;6690638;88;20191;-79
2021/05/13 15:15:25;;;;;;;2.58;0.82;;;20.40;65.50;;;;;;6692950;88;20191;-78
2021/05/13 15:25:26;;;;;;;2.08;0.85;;;18.90;73.00;;;;;;6703242;88;20183;-79
2021/05/13 15:35:26;;;;;;;3.30;0.80;;;18.30;79.20;;;;;;6703037;88;20837;-78
2021/05/13 15:45:27;;;;;;;5.30;0.80;;;17.90;84.70;;;;;;6705264;88;20318;-78
2021/05/13 15:55:27;;;;;;;2.47;0.73;;;18.10;90.00;;;;;;6689762;88;20715;-78
2021/05/13 16:05:28;;;;;;;1.92;0.70;;;17.60;92.60;;;;;;6692110;88;20274;-79
2021/05/13 16:15:29;;;;;;;2.17;0.80;;;17.60;91.50;;;;;;6693482;88;20319;-78
2021/05/13 16:25:30;;;;;;;3.72;0.80;;;17.50;93.00;;;;;;6690353;88;20237;-78
2021/05/13 16:35:30;;;;;;;3.05;0.60;;;17.40;95.10;;;;;;6690682;88;20312;-77
2021/05/13 16:45:31;;;;;;;3.08;0.90;;;16.80;98.00;;;;;;6688583;88;20268;-77
2021/05/13 16:55:32;;;;;;;2.55;0.88;;;16.60;99.50;;;;;;6690107;88;20338;-78
2021/05/13 17:05:34;;;;;;;2.72;0.80;;;16.40;99.70;;;;;;6699666;88;20226;-78
2021/05/13 17:15:35;;;;;;;2.25;0.70;;;16.10;99.90;;;;;;6695565;88;20292;-78
2021/05/13 17:25:37;;;;;;;1.92;0.60;;;16.10;99.90;;;;;;6702000;88;20237;-77
2021/05/13 17:35:37;;;;;;;2.10;0.60;;;16.00;99.90;;;;;;6696819;88;20205;-78
2021/05/13 17:45:38;;;;;;;1.80;0.88;;;16.00;99.90;;;;;;6692189;88;20194;-77
2021/05/13 17:55:39;;;;;;;1.67;0.70;;;15.90;99.90;;;;;;6691992;88;20175;-78
2021/05/13 18:05:41;;;;;;;1.48;0.80;;;15.90;99.90;;;;;;6693470;88;20886;-80
2021/05/13 18:15:42;;;;;;;1.75;0.68;;;15.80;99.90;;;;;;6684541;88;20215;-78
2021/05/13 18:25:43;;;;;;;1.50;0.60;;;15.90;99.90;;;;;;6682712;88;20852;-76
2021/05/13 18:35:44;;;;;;;1.67;0.60;;;15.50;99.90;;;;;;6687290;88;20186;-78
2021/05/13 18:45:44;;;;;;;1.27;0.60;;;15.30;99.90;;;;;;6679638;88;21005;-78
2021/05/13 18:55:46;;;;;;;1.65;0.60;;;15.10;99.90;;;;;;6682575;88;20829;-78
2021/05/13 19:05:46;;;;;;;2.35;0.80;;;14.60;99.90;;;;;;6689497;88;20326;-77
2021/05/13 19:15:47;;;;;;;1.45;0.43;;;14.60;99.90;;;;;;6682652;88;20204;-78
2021/05/13 19:25:50;;;;;;;2.30;0.70;;;14.50;99.90;;;;;;6689418;88;20201;-77
2021/05/13 19:35:50;;;;;;;3.42;0.80;;;14.40;99.90;;;;;;6682827;88;20764;-77
2021/05/13 19:45:51;;;;;;;1.60;0.90;;;14.30;99.90;;;;;;6688912;88;20262;-77
2021/05/13 19:55:54;;;;;;;1.80;0.90;;;14.30;99.90;;;;;;6690328;88;20187;-78
2021/05/13 20:06:07;;;;;;;1.60;1.12;;;14.10;99.90;;;;;;6691434;88;20216;-78
2021/05/13 20:16:08;;;;;;;2.30;1.40;;;13.90;99.90;;;;;;6690617;88;20194;-78
2021/05/13 20:26:22;;;;;;;2.90;1.27;;;13.70;99.90;;;;;;6687357;88;20299;-77
2021/05/13 20:36:23;;;;;;;2.92;1.02;;;13.90;99.90;;;;;;6684778;88;20754;-78
2021/05/13 20:46:25;;;;;;;1.85;0.90;;;13.80;99.90;;;;;;6690905;88;20205;-77
2021/05/13 21:37:20;;;;;;;3.53;1.80;;;13.40;99.90;;;;;;6689243;88;20225;-78
2021/05/13 21:47:22;;;;;;;4.65;1.48;;;13.20;99.90;;;;;;6682506;88;20343;-78
2021/05/13 21:57:23;;;;;;;5.18;1.90;;;13.10;99.90;;;;;;6691250;88;20628;-76
2021/05/13 22:07:24;;;;;;;4.18;2.03;;;13.10;99.90;;;;;;6691387;88;20191;-76
2021/05/13 22:17:25;;;;;;;3.55;1.45;;;13.00;99.90;;;;;;6690206;88;20219;-77
2021/05/13 22:27:27;;;;;;;3.78;2.10;;;12.90;99.90;;;;;;6684255;88;20190;-78
2021/05/13 22:37:28;;;;;;;3.85;2.45;;;12.80;99.90;;;;;;6687897;88;20272;-77
2021/05/13 22:47:29;;;;;;;3.15;2.17;;;13.00;99.90;;;;;;6687974;88;20176;-77
2021/05/13 22:57:30;;;;;;;2.62;1.75;;;13.10;99.90;;;;;;6684722;88;20205;-77
2021/05/13 23:07:32;;;;;;;3.85;2.00;;;13.10;99.90;;;;;;6689623;88;20314;-77
2021/05/13 23:17:32;;;;;;;3.10;1.80;;;13.00;99.90;;;;;;6688841;88;20180;-77
2021/05/13 23:27:33;;;;;;;3.10;1.70;;;12.70;99.90;;;;;;6689213;88;20253;-77
2021/05/13 23:37:33;;;;;;;2.50;1.60;;;12.80;99.90;;;;;;6688474;88;20195;-77
2021/05/13 23:47:34;;;;;;;3.22;1.83;;;13.00;99.90;;;;;;6687900;88;20244;-76
2021/05/13 23:57:34;;;;;;;4.12;1.80;;;12.80;99.90;;;;;;6691507;88;20207;-77
